createdAt,value
2018-12-05T00:01:10.481Z,102062.40
2018-12-05T00:03:38.965Z,102066.73
2018-12-05T00:06:07.337Z,102070.87
2018-12-05T00:08:35.611Z,102070.74
2018-12-05T00:11:04.058Z,102076.14
2018-12-05T00:13:32.410Z,102081.05
2018-12-05T00:16:00.963Z,102080.91
2018-12-05T00:18:29.302Z,102081.74
2018-12-05T00:20:57.569Z,102077.84
2018-12-05T00:23:26.232Z,102081.33
2018-12-05T00:25:54.566Z,102084.73
2018-12-05T00:28:23.147Z,102079.62
2018-12-05T00:30:51.423Z,102088.42
2018-12-05T00:33:19.871Z,102089.95
2018-12-05T00:35:48.171Z,102094.66
2018-12-05T00:38:16.439Z,102098.37
2018-12-05T00:40:44.756Z,102091.18
2018-12-05T00:43:13.026Z,102091.70
2018-12-05T00:45:41.393Z,102091.77
2018-12-05T00:48:09.828Z,102095.30
2018-12-05T00:50:38.097Z,102091.19
2018-12-05T00:53:06.378Z,102098.68
2018-12-05T00:55:35.421Z,102102.27
2018-12-05T00:58:04.162Z,102097.24
2018-12-05T01:00:33.188Z,102105.72
2018-12-05T01:03:01.515Z,102107.23
2018-12-05T01:05:30.495Z,102108.63
2018-12-05T01:07:58.786Z,102114.82
2018-12-05T01:13:15.254Z,102117.00
2018-12-05T01:15:43.582Z,102123.45
2018-12-05T01:18:12.326Z,102117.70
2018-12-05T01:20:40.994Z,102130.39
2018-12-05T01:23:09.780Z,102132.36
2018-12-05T01:25:38.555Z,102129.05
2018-12-05T01:28:07.263Z,102130.53
2018-12-05T01:30:36.253Z,102132.25
2018-12-05T01:33:04.938Z,102130.40
2018-12-05T01:35:33.576Z,102123.44
2018-12-05T01:38:02.037Z,102120.73
2018-12-05T01:40:30.301Z,102127.91
2018-12-05T01:42:58.659Z,102126.05
2018-12-05T01:45:27.246Z,102128.83
2018-12-05T01:47:55.550Z,102122.98
2018-12-05T01:50:24.199Z,102124.76
2018-12-05T01:52:52.883Z,102122.23
2018-12-05T01:55:21.261Z,102119.70
2018-12-05T01:57:49.853Z,102119.98
2018-12-05T02:00:18.383Z,102118.81
2018-12-05T02:02:46.681Z,102125.30
2018-12-05T02:05:15.140Z,102115.59
2018-12-05T02:07:43.584Z,102122.95
2018-12-05T02:10:11.884Z,102127.94
2018-12-05T02:12:40.276Z,102127.96
2018-12-05T02:15:08.728Z,102134.08
2018-12-05T02:17:37.387Z,102132.01
2018-12-05T02:20:06.269Z,102132.22
2018-12-05T02:22:34.711Z,102138.18
2018-12-05T02:25:03.219Z,102133.82
2018-12-05T02:27:31.798Z,102131.37
2018-12-05T02:30:00.317Z,102129.97
2018-12-05T02:32:28.706Z,102126.23
2018-12-05T02:34:57.372Z,102134.47
2018-12-05T02:37:25.803Z,102120.91
2018-12-05T02:39:54.220Z,102120.91
2018-12-05T02:42:22.600Z,102128.09
2018-12-05T02:44:51.052Z,102135.19
2018-12-05T02:47:19.535Z,102137.77
2018-12-05T02:49:47.838Z,102146.42
2018-12-05T02:52:16.453Z,102146.42
2018-12-05T02:54:44.854Z,102151.67
2018-12-05T02:57:13.241Z,102153.81
2018-12-05T02:59:41.706Z,102155.75
2018-12-05T03:02:09.999Z,102160.78
2018-12-05T03:04:38.457Z,102165.28
2018-12-05T03:07:06.817Z,102163.85
2018-12-05T03:09:35.117Z,102162.45
2018-12-05T03:12:03.513Z,102162.45
2018-12-05T03:14:32.226Z,102170.22
2018-12-05T03:17:01.038Z,102170.32
2018-12-05T03:19:29.338Z,102171.28
2018-12-05T03:22:17.693Z,102171.28
2018-12-05T03:24:46.211Z,102180.25
2018-12-05T03:27:14.592Z,102180.25
2018-12-05T03:29:43.283Z,102180.67
2018-12-05T03:32:11.780Z,102184.89
2018-12-05T03:34:40.165Z,102185.05
2018-12-05T03:37:08.607Z,102176.19
2018-12-05T03:39:37.004Z,102174.41
2018-12-05T03:42:05.413Z,102191.51
2018-12-05T03:44:33.866Z,102192.11
2018-12-05T03:47:21.274Z,102191.03
2018-12-05T03:50:08.725Z,102191.03
2018-12-05T03:52:56.141Z,102198.48
2018-12-05T03:55:43.638Z,102196.59
2018-12-05T03:58:12.132Z,102196.59
2018-12-05T04:00:40.545Z,102193.88
2018-12-05T04:03:08.904Z,102185.05
2018-12-05T04:05:37.220Z,102186.59
2018-12-05T04:08:05.623Z,102195.47
2018-12-05T04:10:34.251Z,102192.87
2018-12-05T04:13:02.741Z,102197.20
2018-12-05T04:15:31.391Z,102191.03
2018-12-05T04:17:59.726Z,102201.71
2018-12-05T04:20:28.291Z,102216.64
2018-12-05T04:22:56.954Z,102210.43
2018-12-05T04:25:25.404Z,102207.99
2018-12-05T04:27:54.106Z,102208.33
2018-12-05T04:30:22.495Z,102203.89
2018-12-05T04:32:51.116Z,102208.66
2018-12-05T04:35:19.515Z,102200.34
2018-12-05T04:37:47.893Z,102200.34
2018-12-05T04:40:16.232Z,102202.82
2018-12-05T04:42:44.631Z,102206.95
2018-12-05T04:45:13.058Z,102210.35
2018-12-05T04:47:41.841Z,102214.97
2018-12-05T04:50:10.335Z,102217.44
2018-12-05T04:52:38.801Z,102224.23
2018-12-05T04:55:26.314Z,102224.23
2018-12-05T04:57:54.581Z,102226.89
2018-12-05T05:00:23.062Z,102228.38
2018-12-05T05:02:51.623Z,102233.62
2018-12-05T05:05:21.046Z,102234.23
2018-12-05T05:07:49.415Z,102236.69
2018-12-05T05:10:18.513Z,102243.15
2018-12-05T05:12:46.904Z,102243.41
2018-12-05T05:15:15.683Z,102250.58
2018-12-05T05:17:44.243Z,102249.12
2018-12-05T05:20:13.285Z,102252.99
2018-12-05T05:22:41.735Z,102252.99
2018-12-05T05:25:10.198Z,102253.06
2018-12-05T05:27:45.717Z,102260.09
2018-12-05T05:32:37.752Z,102267.13
2018-12-05T05:35:06.469Z,102267.13
2018-12-05T05:37:34.868Z,102262.33
2018-12-05T05:40:03.569Z,102262.81
2018-12-05T05:42:31.864Z,102265.23
2018-12-05T05:45:00.238Z,102264.37
2018-12-05T05:47:28.669Z,102264.37
2018-12-05T05:49:57.059Z,102258.66
2018-12-05T05:52:25.836Z,102262.80
2018-12-05T05:54:54.275Z,102268.03
2018-12-05T05:57:22.856Z,102277.08
2018-12-05T05:59:51.264Z,102271.72
2018-12-05T06:02:20.375Z,102271.80
2018-12-05T06:07:18.347Z,102272.30
2018-12-05T06:09:47.087Z,102272.30
2018-12-05T06:12:15.376Z,102278.64
2018-12-05T06:14:44.356Z,102280.87
2018-12-05T06:17:31.803Z,102280.64
2018-12-05T06:20:00.199Z,102277.91
2018-12-05T06:22:28.578Z,102282.42
2018-12-05T06:24:56.947Z,102282.42
2018-12-05T06:27:25.279Z,102282.19
2018-12-05T06:29:53.699Z,102287.26
2018-12-05T06:32:22.365Z,102284.20
2018-12-05T06:34:50.793Z,102284.20
2018-12-05T06:37:19.187Z,102286.86
2018-12-05T06:39:47.623Z,102292.35
2018-12-05T06:42:16.290Z,102298.25
2018-12-05T06:44:44.659Z,102306.81
2018-12-05T06:47:13.652Z,102300.71
2018-12-05T06:49:42.072Z,102314.08
2018-12-05T06:52:10.383Z,102312.95
2018-12-05T06:54:39.234Z,102321.94
2018-12-05T06:57:07.752Z,102320.09
2018-12-05T06:59:36.407Z,102315.28
2018-12-05T07:02:04.939Z,102318.80
2018-12-05T07:04:33.599Z,102319.25
2018-12-05T07:07:01.973Z,102319.25
2018-12-05T07:09:30.674Z,102328.23
2018-12-05T07:11:59.318Z,102319.33
2018-12-05T07:14:27.838Z,102327.31
2018-12-05T07:16:56.260Z,102327.31
2018-12-05T07:19:24.546Z,102338.58
2018-12-05T07:21:52.934Z,102340.50
2018-12-05T07:24:21.310Z,102343.77
2018-12-05T07:26:49.621Z,102361.45
2018-12-05T07:29:18.326Z,102364.41
2018-12-05T07:31:46.789Z,102364.41
2018-12-05T07:34:15.278Z,102361.66
2018-12-05T07:43:02.121Z,102376.53
2018-12-05T07:45:30.606Z,102372.61
2018-12-05T07:47:59.068Z,102379.88
2018-12-05T07:50:27.504Z,102379.88
2018-12-05T07:52:56.051Z,102382.91
2018-12-05T07:55:24.629Z,102382.55
2018-12-05T07:58:50.326Z,102382.70
2018-12-05T08:01:18.603Z,102379.61
2018-12-05T08:03:47.005Z,102379.61
2018-12-05T08:06:15.613Z,102386.84
2018-12-05T08:08:44.452Z,102391.86
2018-12-05T08:11:12.846Z,102379.86
2018-12-05T08:13:41.296Z,102378.38
2018-12-05T08:16:09.795Z,102347.06
2018-12-05T08:18:38.168Z,102378.83
2018-12-05T08:21:06.533Z,102378.83
2018-12-05T08:23:35.198Z,102376.31
2018-12-05T08:26:03.958Z,102362.59
2018-12-05T08:28:32.767Z,102376.52
2018-12-05T08:31:01.082Z,102374.67
2018-12-05T08:33:29.444Z,102376.77
2018-12-05T08:35:57.974Z,102379.69
2018-12-05T08:38:26.553Z,102375.06
2018-12-05T08:40:55.050Z,102372.82
2018-12-05T08:43:23.514Z,102378.64
2018-12-05T08:45:51.849Z,102373.98
2018-12-05T08:48:20.508Z,102380.48
2018-12-05T08:50:48.944Z,102377.28
2018-12-05T08:53:17.418Z,102388.80
2018-12-05T08:55:46.009Z,102389.69
2018-12-05T08:58:14.832Z,102393.11
2018-12-05T09:00:43.320Z,102386.23
2018-12-05T09:03:12.153Z,102389.91
2018-12-05T09:05:40.773Z,102384.92
2018-12-05T09:08:09.244Z,102390.72
2018-12-05T09:10:37.710Z,102385.73
2018-12-05T09:13:06.154Z,102386.68
2018-12-05T09:15:34.901Z,102383.59
2018-12-05T09:18:03.692Z,102385.69
2018-12-05T09:20:32.200Z,102383.29
2018-12-05T09:23:00.576Z,102382.31
2018-12-05T09:25:29.329Z,102382.27
2018-12-05T09:27:57.950Z,102380.40
2018-12-05T09:30:27.141Z,102379.96
2018-12-05T09:32:56.755Z,102390.25
2018-12-05T09:38:00.633Z,102379.37
2018-12-05T09:40:29.147Z,102381.24
2018-12-05T09:42:57.447Z,102375.55
2018-12-05T09:45:25.953Z,102385.23
2018-12-05T09:47:54.333Z,102386.54
2018-12-05T09:50:23.208Z,102370.77
2018-12-05T09:52:51.679Z,102368.22
2018-12-05T09:55:20.125Z,102371.45
2018-12-05T09:57:48.498Z,102381.94
2018-12-05T10:00:16.939Z,102374.59
2018-12-05T10:02:45.489Z,102382.20
2018-12-05T10:05:14.245Z,102384.55
2018-12-05T10:07:42.806Z,102381.22
2018-12-05T10:10:11.305Z,102382.52
2018-12-05T10:12:39.667Z,102383.77
2018-12-05T10:15:08.309Z,102384.64
2018-12-05T10:17:38.124Z,102390.44
2018-12-05T10:20:25.852Z,102384.73
2018-12-05T10:22:54.251Z,102383.97
2018-12-05T10:25:22.774Z,102384.62
2018-12-05T10:27:52.273Z,102374.86
2018-12-05T10:30:20.761Z,102369.45
2018-12-05T10:32:49.163Z,102372.56
2018-12-05T10:35:18.239Z,102367.16
2018-12-05T10:37:46.889Z,102358.91
2018-12-05T10:40:15.301Z,102356.64
2018-12-05T10:42:43.721Z,102356.18
2018-12-05T10:45:12.603Z,102358.22
2018-12-05T10:47:41.055Z,102360.32
2018-12-05T10:50:09.581Z,102354.44
2018-12-05T10:52:37.944Z,102358.28
2018-12-05T10:55:06.318Z,102357.62
2018-12-05T10:57:34.766Z,102356.02
2018-12-05T11:00:03.570Z,102358.88
2018-12-05T11:02:51.192Z,102361.13
2018-12-05T11:05:38.607Z,102358.20
2018-12-05T11:08:26.066Z,102350.84
2018-12-05T11:11:13.503Z,102348.14
2018-12-05T11:14:01.067Z,102340.70
2018-12-05T11:16:48.629Z,102342.74
2018-12-05T11:19:36.272Z,102351.53
2018-12-05T11:22:23.824Z,102341.20
2018-12-05T11:25:02.688Z,102340.09
2018-12-05T11:27:31.092Z,102342.78
2018-12-05T11:29:59.470Z,102343.34
2018-12-05T11:32:27.985Z,102342.53
2018-12-05T11:34:56.368Z,102342.15
2018-12-05T11:37:24.753Z,102338.83
2018-12-05T11:39:53.314Z,102332.69
2018-12-05T11:42:21.626Z,102329.78
2018-12-05T11:44:49.985Z,102341.40
2018-12-05T11:47:18.290Z,102342.52
2018-12-05T11:49:46.635Z,102342.52
2018-12-05T11:52:14.917Z,102339.70
2018-12-05T11:54:43.494Z,102338.48
2018-12-05T11:57:12.830Z,102334.63
2018-12-05T11:59:41.346Z,102330.85
2018-12-05T12:02:10.060Z,102333.19
2018-12-05T12:04:38.418Z,102327.73
2018-12-05T12:07:06.926Z,102325.73
2018-12-05T12:09:35.290Z,102317.95
2018-12-05T12:12:03.660Z,102320.70
2018-12-05T12:14:31.949Z,102312.09
2018-12-05T12:17:00.805Z,102305.06
2018-12-05T12:19:29.185Z,102318.02
2018-12-05T12:21:57.631Z,102310.61
2018-12-05T12:24:26.062Z,102310.50
2018-12-05T12:30:03.860Z,102307.05
2018-12-05T12:32:32.241Z,102309.98
2018-12-05T12:35:20.220Z,102303.52
2018-12-05T12:37:48.486Z,102301.09
2018-12-05T12:40:17.477Z,102295.63
2018-12-05T12:42:46.231Z,102287.47
2018-12-05T12:45:14.655Z,102286.38
2018-12-05T12:50:12.011Z,102287.13
2018-12-05T12:52:40.712Z,102284.63
2018-12-05T12:55:09.151Z,102282.13
2018-12-05T12:57:37.503Z,102278.29
2018-12-05T13:00:07.623Z,102285.16
2018-12-05T13:02:35.967Z,102277.24
2018-12-05T13:05:04.506Z,102274.43
2018-12-05T13:07:32.890Z,102275.06
2018-12-05T13:10:02.868Z,102268.45
2018-12-05T13:12:50.594Z,102274.48
2018-12-05T13:15:18.964Z,102265.89
2018-12-05T13:17:47.236Z,102270.69
2018-12-05T13:20:15.569Z,102271.87
2018-12-05T13:22:44.512Z,102271.02
2018-12-05T13:25:13.200Z,102269.39
2018-12-05T13:28:00.718Z,102267.91
2018-12-05T13:30:29.114Z,102255.95
2018-12-05T13:32:57.494Z,102260.08
2018-12-05T13:35:26.054Z,102260.08
2018-12-05T13:37:54.449Z,102258.64
2018-12-05T13:40:22.885Z,102259.11
2018-12-05T13:42:51.813Z,102259.53
2018-12-05T13:45:39.179Z,102258.47
2018-12-05T13:48:07.913Z,102255.74
2018-12-05T13:50:36.204Z,102254.31
2018-12-05T13:53:05.020Z,102247.70
2018-12-05T13:55:33.474Z,102238.33
2018-12-05T13:58:01.839Z,102239.33
2018-12-05T14:00:30.214Z,102238.82
2018-12-05T14:02:58.645Z,102233.34
2018-12-05T14:05:27.115Z,102232.27
2018-12-05T14:07:55.388Z,102232.05
2018-12-05T14:10:23.798Z,102230.00
2018-12-05T14:12:52.446Z,102228.93
2018-12-05T14:15:21.100Z,102232.17
2018-12-05T14:17:49.500Z,102238.08
2018-12-05T14:20:18.242Z,102233.47
2018-12-05T14:22:46.610Z,102236.70
2018-12-05T14:25:15.049Z,102229.73
2018-12-05T14:27:43.409Z,102221.94
2018-12-05T14:30:12.108Z,102222.15
2018-12-05T14:32:40.435Z,102212.46
2018-12-05T14:35:08.799Z,102215.27
2018-12-05T14:37:37.497Z,102211.94
2018-12-05T14:40:06.600Z,102214.81
2018-12-05T14:42:35.232Z,102209.73
2018-12-05T14:45:04.067Z,102210.77
2018-12-05T14:47:32.490Z,102209.97
2018-12-05T14:50:00.864Z,102209.70
2018-12-05T14:52:29.231Z,102210.30
2018-12-05T14:54:58.032Z,102219.70
2018-12-05T14:57:26.401Z,102213.55
2018-12-05T14:59:54.897Z,102215.21
2018-12-05T15:02:23.324Z,102212.03
2018-12-05T15:04:51.614Z,102212.84
2018-12-05T15:07:20.327Z,102209.78
2018-12-05T15:09:48.872Z,102213.67
2018-12-05T15:12:17.350Z,102209.25
2018-12-05T15:14:46.015Z,102204.18
2018-12-05T15:17:14.459Z,102200.45
2018-12-05T15:19:42.819Z,102201.88
2018-12-05T15:22:11.515Z,102205.69
2018-12-05T15:24:40.120Z,102198.92
2018-12-05T15:27:08.496Z,102201.62
2018-12-05T15:29:36.868Z,102197.34
2018-12-05T15:32:05.367Z,102190.06
2018-12-05T15:34:33.696Z,102186.05
2018-12-05T15:37:02.683Z,102181.38
2018-12-05T15:39:31.197Z,102182.89
2018-12-05T15:41:59.798Z,102176.14
2018-12-05T15:44:28.294Z,102178.11
2018-12-05T15:46:56.663Z,102175.70
2018-12-05T15:49:25.050Z,102172.95
2018-12-05T15:51:53.327Z,102174.12
2018-12-05T15:54:21.775Z,102167.50
2018-12-05T15:56:50.672Z,102164.02
2018-12-05T15:59:18.950Z,102156.11
2018-12-05T16:01:47.392Z,102155.17
2018-12-05T16:04:34.779Z,102146.01
2018-12-05T16:07:03.267Z,102150.40
2018-12-05T16:09:32.012Z,102148.59
2018-12-05T16:12:00.443Z,102143.29
2018-12-05T16:14:29.065Z,102137.31
2018-12-05T16:16:57.545Z,102139.66
2018-12-05T16:19:26.254Z,102132.73
2018-12-05T16:21:54.700Z,102121.54
2018-12-05T16:24:23.088Z,102122.48
2018-12-05T16:26:51.542Z,102120.36
2018-12-05T16:29:20.021Z,102114.89
2018-12-05T16:32:07.898Z,102123.45
2018-12-05T16:34:36.262Z,102120.55
2018-12-05T16:37:04.744Z,102120.44
2018-12-05T16:39:33.121Z,102119.41
2018-12-05T16:42:01.667Z,102124.61
2018-12-05T16:44:30.108Z,102119.36
2018-12-05T16:46:58.745Z,102124.97
2018-12-05T16:49:27.172Z,102117.06
2018-12-05T16:51:55.654Z,102111.84
2018-12-05T16:54:43.431Z,102114.64
2018-12-05T16:57:11.800Z,102112.62
2018-12-05T16:59:40.302Z,102113.55
2018-12-05T17:02:09.171Z,102107.36
2018-12-05T17:04:37.546Z,102107.36
2018-12-05T17:07:06.036Z,102105.70
2018-12-05T17:09:34.764Z,102108.56
2018-12-05T17:12:03.259Z,102102.79
2018-12-05T17:14:31.921Z,102109.95
2018-12-05T17:17:00.421Z,102104.00
2018-12-05T17:19:28.962Z,102102.65
2018-12-05T17:21:57.346Z,102103.14
2018-12-05T17:24:25.809Z,102100.06
2018-12-05T17:26:54.136Z,102099.20
2018-12-05T17:29:22.445Z,102094.96
2018-12-05T17:31:52.186Z,102094.84
2018-12-05T17:34:20.569Z,102087.53
2018-12-05T17:36:49.228Z,102094.10
2018-12-05T17:39:17.604Z,102094.58
2018-12-05T17:41:45.970Z,102095.02
2018-12-05T17:44:14.359Z,102097.11
2018-12-05T17:46:42.794Z,102093.25
2018-12-05T17:49:11.201Z,102088.44
2018-12-05T17:51:39.589Z,102079.45
2018-12-05T17:54:27.140Z,102079.52
2018-12-05T17:56:55.856Z,102070.69
2018-12-05T17:59:24.141Z,102063.52
2018-12-05T18:01:52.663Z,102060.99
2018-12-05T18:04:20.940Z,102060.70
2018-12-05T18:06:50.381Z,102067.13
2018-12-05T18:09:18.717Z,102049.05
2018-12-05T18:11:47.203Z,102044.76
2018-12-05T18:14:34.965Z,102041.07
2018-12-05T18:17:03.476Z,102041.16
2018-12-05T18:19:31.955Z,102041.77
2018-12-05T18:22:00.577Z,102035.84
2018-12-05T18:24:29.077Z,102035.84
2018-12-05T18:26:57.479Z,102020.86
2018-12-05T18:29:25.955Z,102027.64
2018-12-05T18:31:54.293Z,102028.69
2018-12-05T18:34:22.829Z,102027.80
2018-12-05T18:36:51.180Z,102028.74
2018-12-05T18:39:19.841Z,102028.01
2018-12-05T18:41:48.118Z,102028.94
2018-12-05T18:44:16.949Z,102026.03
2018-12-05T18:46:45.640Z,102019.75
2018-12-05T18:49:14.095Z,102013.76
2018-12-05T18:51:42.823Z,102010.09
2018-12-05T18:54:11.221Z,102009.17
2018-12-05T18:56:39.666Z,102009.17
2018-12-05T18:59:08.108Z,102004.74
2018-12-05T19:01:36.495Z,102004.74
2018-12-05T19:04:05.298Z,101991.87
2018-12-05T19:06:33.759Z,101982.63
2018-12-05T19:09:02.298Z,101982.63
2018-12-05T19:11:31.011Z,101987.97
2018-12-05T19:14:18.845Z,101990.97
2018-12-05T19:16:47.237Z,101988.88
2018-12-05T19:19:15.609Z,101991.67
2018-12-05T19:21:44.026Z,101997.44
2018-12-05T19:24:12.421Z,101989.08
2018-12-05T19:26:59.978Z,101973.34
2018-12-05T19:29:28.347Z,101973.34
2018-12-05T19:31:56.730Z,101966.05
2018-12-05T19:34:44.523Z,101971.63
2018-12-05T19:37:12.904Z,101970.67
2018-12-05T19:39:41.550Z,101970.67
2018-12-05T19:42:10.363Z,101961.84
2018-12-05T19:44:38.653Z,101959.69
2018-12-05T19:47:06.961Z,101957.68
2018-12-05T19:49:36.209Z,101946.85
2018-12-05T19:54:33.456Z,101952.89
2018-12-05T19:57:02.427Z,101947.58
2018-12-05T19:59:30.845Z,101953.73
2018-12-05T20:01:59.223Z,101961.56
2018-12-05T20:04:27.568Z,101961.56
2018-12-05T20:06:55.855Z,101951.48
2018-12-05T20:09:24.429Z,101957.95
2018-12-05T20:11:53.265Z,101949.16
2018-12-05T20:14:40.784Z,101941.17
2018-12-05T20:17:09.155Z,101948.56
2018-12-05T20:19:37.438Z,101941.05
2018-12-05T20:22:05.813Z,101938.59
2018-12-05T20:24:34.356Z,101944.11
2018-12-05T20:27:03.598Z,101946.70
2018-12-05T20:29:32.223Z,101946.70
2018-12-05T20:32:00.559Z,101943.77
2018-12-05T20:34:29.064Z,101936.70
2018-12-05T20:36:57.437Z,101937.59
2018-12-05T20:44:38.439Z,101935.72
2018-12-05T20:47:06.908Z,101932.75
2018-12-05T20:49:35.307Z,101931.66
2018-12-05T20:52:03.851Z,101929.25
2018-12-05T20:57:00.731Z,101924.10
2018-12-05T20:59:48.504Z,101931.84
2018-12-05T21:02:16.913Z,101917.00
2018-12-05T21:04:45.192Z,101906.12
2018-12-05T21:07:33.107Z,101906.12
2018-12-05T21:10:20.651Z,101897.44
2018-12-05T21:12:49.490Z,101889.20
2018-12-05T21:17:49.848Z,101887.91
2018-12-05T21:20:18.748Z,101891.73
2018-12-05T21:22:47.513Z,101875.56
2018-12-05T21:27:47.800Z,101863.58
2018-12-05T21:30:16.300Z,101863.58
2018-12-05T21:32:45.063Z,101859.47
2018-12-05T21:35:13.419Z,101858.41
2018-12-05T21:37:41.828Z,101850.19
2018-12-05T21:40:10.319Z,101850.19
2018-12-05T21:42:38.674Z,101856.25
2018-12-05T21:45:07.562Z,101841.30
2018-12-05T21:47:35.967Z,101833.28
2018-12-05T21:50:04.951Z,101833.28
2018-12-05T21:52:33.726Z,101832.56
2018-12-05T21:55:02.472Z,101826.97
2018-12-05T21:57:30.950Z,101829.04
2018-12-05T22:07:39.508Z,101817.14
2018-12-05T22:10:09.022Z,101807.59
2018-12-05T22:12:37.632Z,101814.56
2018-12-05T22:15:07.073Z,101811.78
2018-12-05T22:17:54.848Z,101808.19
2018-12-05T22:20:23.296Z,101799.95
2018-12-05T22:22:51.885Z,101798.55
2018-12-05T22:25:20.266Z,101803.55
2018-12-05T22:27:48.828Z,101797.77
2018-12-05T22:30:17.316Z,101797.77
2018-12-05T22:32:46.140Z,101798.47
2018-12-05T22:35:14.630Z,101790.41
2018-12-05T22:37:43.054Z,101789.94
2018-12-05T22:40:12.326Z,101778.69
2018-12-05T22:42:40.897Z,101776.08
2018-12-05T22:45:09.394Z,101775.32
2018-12-05T22:47:37.695Z,101762.70
2018-12-05T22:50:07.107Z,101755.75
2018-12-05T22:52:35.685Z,101756.70
2018-12-05T22:55:04.535Z,101749.22
2018-12-05T22:57:32.987Z,101750.52
2018-12-05T23:02:51.480Z,101744.95
2018-12-05T23:05:20.189Z,101739.50
2018-12-05T23:07:48.592Z,101731.25
2018-12-05T23:10:17.138Z,101731.25
2018-12-05T23:12:45.537Z,101735.30
2018-12-05T23:15:13.939Z,101722.75
2018-12-05T23:17:42.511Z,101725.23
2018-12-05T23:20:11.193Z,101716.31
2018-12-05T23:22:39.676Z,101708.55
2018-12-05T23:25:08.560Z,101705.23
2018-12-05T23:27:36.959Z,101703.78
2018-12-05T23:30:06.008Z,101690.56
2018-12-05T23:32:34.486Z,101692.78
2018-12-05T23:35:03.262Z,101690.24
2018-12-05T23:37:31.654Z,101680.09
2018-12-05T23:40:00.088Z,101671.83
2018-12-05T23:42:28.901Z,101667.54
2018-12-05T23:44:57.625Z,101664.68
2018-12-05T23:47:26.098Z,101661.37
2018-12-05T23:49:54.392Z,101656.69
2018-12-05T23:52:22.796Z,101647.68
2018-12-05T23:54:51.339Z,101653.17
2018-12-05T23:57:20.143Z,101650.53
2018-12-05T23:59:48.690Z,101648.92
